createdAt,value
2019-04-16T00:02:21.878Z,56.78
2019-04-16T00:04:56.707Z,57.41
2019-04-16T00:07:43.654Z,56.47
2019-04-16T00:10:16.910Z,55.09
2019-04-16T00:13:05.313Z,53.96
2019-04-16T00:15:33.952Z,53.53
2019-04-16T00:18:02.579Z,55.46
2019-04-16T00:20:36.893Z,55.59
2019-04-16T00:23:04.877Z,55.39
2019-04-16T00:25:33.512Z,56.89
2019-04-16T00:28:02.174Z,58.23
2019-04-16T00:30:35.470Z,57.31
2019-04-16T00:33:01.147Z,55.47
2019-04-16T00:35:29.862Z,55.66
2019-04-16T00:37:58.489Z,56.75
2019-04-16T00:40:27.321Z,56.41
2019-04-16T00:42:56.069Z,55.13
2019-04-16T00:45:24.692Z,55.99
2019-04-16T00:47:53.316Z,54.84
2019-04-16T00:50:21.985Z,53.86
2019-04-16T00:52:50.605Z,54.39
2019-04-16T00:55:19.233Z,53.89
2019-04-16T00:57:48.675Z,54.41
2019-04-16T01:00:17.959Z,53.77
2019-04-16T01:02:47.087Z,54.63
2019-04-16T01:05:15.834Z,53.44
2019-04-16T01:07:44.463Z,53.60
2019-04-16T01:10:13.086Z,53.02
2019-04-16T01:12:41.679Z,52.36
2019-04-16T01:15:10.408Z,53.24
2019-04-16T01:17:39.034Z,55.80
2019-04-16T01:20:11.844Z,56.38
2019-04-16T01:22:38.037Z,56.44
2019-04-16T01:25:07.155Z,58.07
2019-04-16T01:27:37.463Z,57.96
2019-04-16T01:30:08.457Z,59.44
2019-04-16T01:32:44.764Z,57.50
2019-04-16T01:38:28.048Z,57.32
2019-04-16T01:41:04.246Z,56.76
2019-04-16T01:43:32.916Z,57.79
2019-04-16T01:46:02.491Z,56.62
2019-04-16T01:48:31.433Z,57.44
2019-04-16T01:51:00.097Z,57.31
2019-04-16T01:53:28.723Z,56.21
2019-04-16T01:55:57.741Z,56.69
2019-04-16T01:58:33.839Z,56.35
2019-04-16T02:01:01.735Z,55.34
2019-04-16T02:03:30.359Z,54.66
2019-04-16T02:05:59.209Z,55.03
2019-04-16T02:08:28.295Z,55.46
2019-04-16T02:10:58.176Z,55.57
2019-04-16T02:13:26.843Z,56.55
2019-04-16T02:15:55.468Z,55.72
2019-04-16T02:18:24.193Z,56.38
2019-04-16T02:20:52.862Z,56.18
2019-04-16T02:23:21.489Z,56.47
2019-04-16T02:25:51.392Z,56.28
2019-04-16T02:28:21.751Z,57.54
2019-04-16T02:30:50.584Z,58.02
2019-04-16T02:33:19.211Z,59.69
2019-04-16T02:35:47.915Z,59.90
2019-04-16T02:38:16.559Z,58.66
2019-04-16T02:40:51.297Z,58.23
2019-04-16T02:43:15.936Z,58.50
2019-04-16T02:45:44.587Z,58.94
2019-04-16T02:48:16.733Z,59.94
2019-04-16T02:50:45.326Z,58.31
2019-04-16T02:53:31.820Z,57.66
2019-04-16T02:56:20.285Z,57.89
2019-04-16T02:58:53.526Z,57.49
2019-04-16T03:01:23.785Z,57.54
2019-04-16T03:03:56.235Z,57.31
2019-04-16T03:06:24.440Z,57.18
2019-04-16T03:08:53.068Z,58.30
2019-04-16T03:11:21.727Z,57.51
2019-04-16T03:13:52.856Z,57.53
2019-04-16T03:16:38.643Z,57.29
2019-04-16T03:19:09.033Z,57.90
2019-04-16T03:21:37.641Z,57.72
2019-04-16T03:24:09.353Z,57.89
2019-04-16T03:26:36.635Z,57.58
2019-04-16T03:29:05.263Z,57.42
2019-04-16T03:31:33.918Z,56.33
2019-04-16T03:34:02.539Z,56.45
2019-04-16T03:36:31.163Z,55.97
2019-04-16T03:38:59.744Z,55.28
2019-04-16T03:41:28.374Z,56.23
2019-04-16T03:43:56.930Z,55.97
2019-04-16T03:46:25.598Z,56.58
2019-04-16T03:48:56.164Z,56.69
2019-04-16T03:51:24.564Z,55.80
2019-04-16T03:53:53.216Z,57.50
2019-04-16T03:56:21.831Z,57.44
2019-04-16T03:58:50.464Z,57.42
2019-04-16T04:01:19.128Z,57.62
2019-04-16T04:03:47.800Z,57.15
2019-04-16T04:06:16.452Z,56.87
2019-04-16T04:08:48.001Z,56.56
2019-04-16T04:11:15.469Z,56.36
2019-04-16T04:13:44.085Z,56.14
2019-04-16T04:16:12.808Z,56.83
2019-04-16T04:18:43.153Z,58.06
2019-04-16T04:21:11.790Z,57.53
2019-04-16T04:23:40.453Z,59.32
2019-04-16T04:26:10.179Z,57.80
2019-04-16T04:28:38.983Z,57.62
2019-04-16T04:31:07.642Z,59.79
2019-04-16T04:36:09.365Z,61.10
2019-04-16T04:38:38.618Z,60.88
2019-04-16T04:41:07.830Z,61.04
2019-04-16T04:43:10.014Z,61.35
2019-04-16T04:43:36.642Z,60.98
2019-04-16T04:46:05.386Z,59.81
2019-04-16T04:48:34.007Z,61.16
2019-04-16T04:51:06.995Z,59.68
2019-04-16T04:53:33.280Z,60.69
2019-04-16T04:56:01.929Z,60.93
2019-04-16T04:58:33.788Z,59.81
2019-04-16T05:01:00.902Z,59.80
2019-04-16T05:03:49.085Z,60.42
2019-04-16T05:06:19.402Z,59.61
2019-04-16T05:08:48.021Z,60.60
2019-04-16T05:11:17.121Z,59.30
2019-04-16T05:13:45.871Z,56.72
2019-04-16T05:16:14.510Z,56.14
2019-04-16T05:18:43.142Z,56.13
2019-04-16T05:21:11.837Z,56.54
2019-04-16T05:23:40.480Z,55.95
2019-04-16T05:26:09.957Z,56.65
2019-04-16T05:28:44.314Z,55.74
2019-04-16T05:31:09.096Z,55.56
2019-04-16T05:33:38.219Z,54.98
2019-04-16T05:36:06.871Z,58.13
2019-04-16T05:38:35.505Z,54.12
2019-04-16T05:41:13.200Z,53.33
2019-04-16T05:43:34.698Z,55.85
2019-04-16T05:46:05.499Z,55.36
2019-04-16T05:48:33.667Z,55.40
2019-04-16T05:51:02.363Z,54.04
2019-04-16T05:53:30.982Z,55.43
2019-04-16T05:56:20.223Z,54.38
2019-04-16T05:58:47.803Z,54.17
2019-04-16T06:01:18.072Z,53.90
2019-04-16T06:03:46.790Z,54.39
2019-04-16T06:06:15.461Z,54.58
2019-04-16T06:08:44.104Z,54.28
2019-04-16T06:11:26.722Z,54.97
2019-04-16T06:13:47.432Z,55.16
2019-04-16T06:16:26.748Z,54.45
2019-04-16T06:19:12.988Z,52.54
2019-04-16T06:21:59.268Z,53.32
2019-04-16T06:24:32.379Z,52.69
2019-04-16T06:27:04.282Z,53.71
2019-04-16T06:29:50.453Z,56.18
2019-04-16T06:32:28.153Z,54.86
2019-04-16T06:34:58.788Z,56.38
2019-04-16T06:37:31.826Z,55.58
2019-04-16T06:40:18.135Z,54.57
2019-04-16T06:42:48.455Z,52.99
2019-04-16T06:45:18.726Z,53.13
2019-04-16T06:47:51.924Z,52.78
2019-04-16T06:50:31.080Z,53.14
2019-04-16T06:53:03.393Z,52.08
2019-04-16T06:55:36.116Z,52.30
2019-04-16T06:58:18.500Z,53.79
2019-04-16T07:01:06.768Z,54.14
2019-04-16T07:03:48.993Z,53.00
2019-04-16T07:06:36.337Z,52.32
2019-04-16T07:09:14.167Z,52.43
2019-04-16T07:11:54.164Z,51.93
2019-04-16T07:14:16.363Z,51.77
2019-04-16T07:16:45.180Z,52.95
2019-04-16T07:19:16.646Z,52.30
2019-04-16T07:21:48.648Z,52.18
2019-04-16T07:24:14.556Z,51.67
2019-04-16T07:26:46.397Z,49.78
2019-04-16T07:29:33.207Z,50.24
2019-04-16T07:32:18.731Z,50.27
2019-04-16T07:34:49.002Z,50.62
2019-04-16T07:37:19.291Z,51.76
2019-04-16T07:40:09.996Z,52.87
2019-04-16T07:42:57.966Z,51.87
2019-04-16T07:45:44.130Z,51.46
2019-04-16T07:48:32.862Z,52.03
2019-04-16T07:51:19.597Z,51.71
2019-04-16T07:53:49.871Z,51.37
2019-04-16T07:56:26.190Z,50.55
2019-04-16T07:59:00.235Z,49.94
2019-04-16T08:01:25.161Z,49.03
2019-04-16T08:03:57.452Z,49.79
2019-04-16T08:06:24.107Z,48.76
2019-04-16T08:08:53.890Z,49.23
2019-04-16T08:11:23.286Z,50.24
2019-04-16T08:13:51.928Z,50.36
2019-04-16T08:16:20.631Z,48.33
2019-04-16T08:18:50.366Z,48.45
2019-04-16T08:21:22.267Z,48.73
2019-04-16T08:23:52.883Z,49.10
2019-04-16T08:26:21.475Z,49.12
2019-04-16T08:28:50.052Z,47.70
2019-04-16T08:31:20.311Z,48.06
2019-04-16T08:33:48.989Z,48.39
2019-04-16T08:36:17.923Z,48.65
2019-04-16T08:38:46.548Z,48.90
2019-04-16T08:41:20.045Z,48.21
2019-04-16T08:43:45.640Z,48.57
2019-04-16T08:46:14.267Z,46.16
2019-04-16T08:48:42.924Z,46.30
2019-04-16T08:51:11.668Z,45.34
2019-04-16T08:53:40.259Z,46.60
2019-04-16T08:56:08.906Z,48.49
2019-04-16T08:58:38.546Z,47.83
2019-04-16T09:01:08.909Z,46.67
2019-04-16T09:03:37.517Z,46.11
2019-04-16T09:06:06.132Z,46.64
2019-04-16T09:08:45.367Z,45.91
2019-04-16T09:11:23.292Z,46.07
2019-04-16T09:13:48.150Z,46.00
2019-04-16T09:16:16.427Z,44.35
2019-04-16T09:18:55.871Z,44.32
2019-04-16T09:21:27.726Z,44.53
2019-04-16T09:24:12.825Z,45.37
2019-04-16T09:26:45.836Z,46.20
2019-04-16T09:29:16.114Z,44.16
2019-04-16T09:31:55.073Z,43.35
2019-04-16T09:34:24.442Z,44.82
2019-04-16T09:37:00.811Z,46.01
2019-04-16T09:39:40.361Z,46.51
2019-04-16T09:42:09.002Z,44.94
2019-04-16T09:44:37.625Z,44.62
2019-04-16T09:47:06.314Z,46.20
2019-04-16T09:49:37.670Z,46.66
2019-04-16T09:52:05.362Z,44.14
2019-04-16T09:54:34.028Z,42.70
2019-04-16T09:57:02.653Z,44.35
2019-04-16T09:59:32.925Z,44.43
2019-04-16T10:02:03.242Z,46.50
2019-04-16T10:04:31.868Z,44.28
2019-04-16T10:07:00.494Z,44.44
2019-04-16T10:09:29.179Z,43.07
2019-04-16T10:11:57.799Z,42.98
2019-04-16T10:14:26.429Z,42.52
2019-04-16T10:16:55.084Z,44.38
2019-04-16T10:19:23.859Z,42.54
2019-04-16T10:21:54.244Z,43.55
2019-04-16T10:24:24.558Z,43.20
2019-04-16T10:26:56.961Z,42.10
2019-04-16T10:29:25.166Z,42.10
2019-04-16T10:31:55.193Z,42.13
2019-04-16T10:34:23.893Z,42.54
2019-04-16T10:36:52.521Z,41.08
2019-04-16T10:39:28.806Z,42.03
2019-04-16T10:41:59.084Z,40.55
2019-04-16T10:44:29.344Z,41.05
2019-04-16T10:47:05.441Z,38.80
2019-04-16T10:49:51.955Z,38.46
2019-04-16T10:52:22.490Z,38.45
2019-04-16T10:57:51.081Z,39.53
2019-04-16T11:00:37.438Z,40.76
2019-04-16T11:03:10.732Z,41.27
2019-04-16T11:05:41.005Z,42.95
2019-04-16T11:08:10.601Z,42.91
2019-04-16T11:10:39.255Z,42.85
2019-04-16T11:13:09.493Z,41.31
2019-04-16T11:15:39.888Z,42.44
2019-04-16T11:18:08.575Z,42.56
2019-04-16T11:20:37.194Z,41.85
2019-04-16T11:23:07.599Z,40.16
2019-04-16T11:25:36.581Z,40.50
2019-04-16T11:28:05.217Z,38.51
2019-04-16T11:30:35.483Z,39.27
2019-04-16T11:33:04.125Z,39.19
2019-04-16T11:35:32.765Z,41.12
2019-04-16T11:38:01.382Z,44.17
2019-04-16T11:40:30.072Z,46.90
2019-04-16T11:42:58.708Z,49.37
2019-04-16T11:45:27.368Z,50.74
2019-04-16T11:47:56.025Z,51.14
2019-04-16T11:50:24.669Z,49.72
2019-04-16T11:52:57.233Z,49.68
2019-04-16T11:55:23.748Z,48.94
2019-04-16T11:57:52.513Z,47.99
2019-04-16T12:00:26.490Z,48.00
2019-04-16T12:03:13.042Z,46.95
2019-04-16T12:05:51.998Z,45.08
2019-04-16T12:08:22.299Z,43.82
2019-04-16T12:11:01.660Z,43.45
2019-04-16T12:13:31.915Z,44.02
2019-04-16T12:16:17.533Z,44.13
2019-04-16T12:18:47.793Z,44.05
2019-04-16T12:21:18.092Z,43.33
2019-04-16T12:23:48.317Z,42.96
2019-04-16T12:26:24.762Z,42.45
2019-04-16T12:28:55.036Z,43.05
2019-04-16T12:31:28.133Z,42.36
2019-04-16T12:34:07.710Z,42.74
2019-04-16T12:36:56.046Z,43.13
2019-04-16T12:39:36.037Z,42.66
2019-04-16T12:42:06.712Z,43.61
2019-04-16T12:44:45.325Z,41.34
2019-04-16T12:47:09.034Z,41.39
2019-04-16T12:49:55.799Z,41.95
2019-04-16T12:52:38.005Z,41.89
2019-04-16T12:55:24.534Z,40.92
2019-04-16T12:57:59.047Z,41.28
2019-04-16T13:00:47.286Z,40.65
2019-04-16T13:03:23.586Z,40.82
2019-04-16T13:06:11.763Z,39.94
2019-04-16T13:08:45.129Z,39.26
2019-04-16T13:11:15.391Z,40.49
2019-04-16T13:14:00.754Z,41.68
2019-04-16T13:16:47.386Z,40.77
2019-04-16T13:19:34.239Z,42.26
2019-04-16T13:22:04.336Z,40.17
2019-04-16T13:24:40.798Z,39.90
2019-04-16T13:27:27.791Z,40.87
2019-04-16T13:30:01.294Z,41.66
2019-04-16T13:32:27.961Z,42.33
2019-04-16T13:34:58.207Z,42.54
2019-04-16T13:37:30.327Z,40.83
2019-04-16T13:39:59.620Z,39.92
2019-04-16T13:42:28.799Z,39.11
2019-04-16T13:44:59.579Z,38.96
2019-04-16T13:47:29.367Z,39.27
2019-04-16T13:50:02.582Z,37.96
2019-04-16T13:52:30.041Z,39.24
2019-04-16T13:55:10.574Z,39.91
2019-04-16T13:57:44.178Z,37.77
2019-04-16T14:00:14.542Z,38.24
2019-04-16T14:02:47.811Z,36.13
2019-04-16T14:05:15.486Z,37.14
2019-04-16T14:07:44.110Z,38.49
2019-04-16T14:10:13.010Z,38.45
2019-04-16T14:12:42.770Z,39.25
2019-04-16T14:15:11.860Z,40.87
2019-04-16T14:17:52.178Z,39.73
2019-04-16T14:20:12.308Z,39.65
2019-04-16T14:22:41.692Z,38.79
2019-04-16T14:25:11.522Z,39.29
2019-04-16T14:27:40.196Z,37.53
2019-04-16T14:30:16.777Z,38.32
2019-04-16T14:32:45.439Z,39.78
2019-04-16T14:35:16.100Z,40.94
2019-04-16T14:37:44.733Z,40.95
2019-04-16T14:40:16.031Z,41.85
2019-04-16T14:42:44.662Z,41.84
2019-04-16T14:45:28.173Z,41.61
2019-04-16T14:47:56.897Z,41.33
2019-04-16T14:50:25.569Z,39.71
2019-04-16T14:52:54.226Z,40.38
2019-04-16T14:55:27.468Z,39.82
2019-04-16T14:58:03.472Z,39.24
2019-04-16T15:00:37.176Z,38.32
2019-04-16T15:03:07.442Z,38.17
2019-04-16T15:05:37.748Z,38.58
2019-04-16T15:08:14.059Z,38.33
2019-04-16T15:11:00.799Z,38.75
2019-04-16T15:13:31.100Z,37.88
2019-04-16T15:16:10.818Z,37.90
2019-04-16T15:18:33.358Z,37.62
2019-04-16T15:21:12.579Z,38.09
2019-04-16T15:23:42.938Z,37.65
2019-04-16T15:26:13.204Z,37.60
2019-04-16T15:28:43.477Z,37.79
2019-04-16T15:31:19.503Z,36.74
2019-04-16T15:33:55.761Z,36.85
2019-04-16T15:36:26.214Z,37.92
2019-04-16T15:38:59.075Z,38.86
2019-04-16T15:41:46.544Z,39.22
2019-04-16T15:44:22.834Z,38.47
2019-04-16T15:47:03.863Z,39.77
2019-04-16T15:49:34.136Z,39.63
2019-04-16T15:52:09.910Z,42.32
2019-04-16T15:54:44.929Z,42.21
2019-04-16T15:57:17.910Z,42.72
2019-04-16T15:59:54.219Z,41.69
2019-04-16T16:02:33.514Z,42.66
2019-04-16T16:05:03.820Z,41.45
2019-04-16T16:07:32.819Z,42.05
2019-04-16T16:10:12.388Z,41.13
2019-04-16T16:12:39.481Z,41.99
2019-04-16T16:15:09.825Z,42.62
2019-04-16T16:17:38.525Z,40.62
2019-04-16T16:20:10.236Z,39.81
2019-04-16T16:22:38.100Z,39.91
2019-04-16T16:25:08.009Z,40.48
2019-04-16T16:27:41.766Z,39.57
2019-04-16T16:30:07.687Z,39.48
2019-04-16T16:32:36.353Z,37.44
2019-04-16T16:35:06.585Z,36.82
2019-04-16T16:37:36.883Z,36.28
2019-04-16T16:40:06.836Z,37.32
2019-04-16T16:42:35.396Z,36.83
2019-04-16T16:45:04.641Z,36.32
2019-04-16T16:47:34.944Z,37.23
2019-04-16T16:50:03.767Z,37.21
2019-04-16T16:52:37.087Z,36.37
2019-04-16T16:55:09.117Z,36.39
2019-04-16T16:57:42.290Z,37.38
2019-04-16T17:00:24.040Z,37.22
2019-04-16T17:03:02.512Z,37.26
2019-04-16T17:05:32.840Z,36.79
2019-04-16T17:08:01.470Z,37.05
2019-04-16T17:10:30.186Z,37.75
2019-04-16T17:12:58.860Z,37.28
2019-04-16T17:15:27.555Z,38.61
2019-04-16T17:17:56.347Z,38.09
2019-04-16T17:20:25.046Z,38.06
2019-04-16T17:22:53.803Z,39.21
2019-04-16T17:25:35.491Z,39.04
2019-04-16T17:27:52.807Z,38.10
2019-04-16T17:30:21.618Z,39.35
2019-04-16T17:32:50.344Z,40.07
2019-04-16T17:35:19.002Z,39.41
2019-04-16T17:37:47.723Z,39.70
2019-04-16T17:40:18.010Z,41.21
2019-04-16T17:42:48.351Z,40.86
2019-04-16T17:45:18.602Z,40.05
2019-04-16T17:48:00.796Z,39.29
2019-04-16T17:50:39.584Z,40.72
2019-04-16T17:53:12.003Z,42.32
2019-04-16T17:55:43.265Z,41.33
2019-04-16T17:58:13.605Z,43.69
2019-04-16T18:00:46.927Z,43.49
2019-04-16T18:03:37.256Z,43.17
2019-04-16T18:06:07.408Z,43.95
2019-04-16T18:08:37.681Z,43.51
2019-04-16T18:11:10.948Z,43.54
2019-04-16T18:13:41.267Z,43.71
2019-04-16T18:16:11.587Z,42.69
2019-04-16T18:18:44.800Z,41.37
2019-04-16T18:21:18.160Z,42.11
2019-04-16T18:23:57.257Z,41.54
2019-04-16T18:26:33.243Z,40.67
2019-04-16T18:29:06.506Z,42.32
2019-04-16T18:31:42.769Z,41.15
2019-04-16T18:34:29.059Z,41.00
2019-04-16T18:37:14.224Z,39.11
2019-04-16T18:39:53.278Z,39.05
2019-04-16T18:42:23.587Z,38.50
2019-04-16T18:45:10.006Z,38.32
2019-04-16T18:47:40.327Z,38.41
2019-04-16T18:50:13.479Z,38.58
2019-04-16T18:52:42.121Z,39.95
2019-04-16T18:55:10.946Z,39.35
2019-04-16T18:57:39.577Z,38.40
2019-04-16T19:00:10.665Z,37.64
2019-04-16T19:02:42.078Z,37.78
2019-04-16T19:05:09.968Z,37.88
2019-04-16T19:07:38.681Z,38.57
2019-04-16T19:10:07.811Z,37.51
2019-04-16T19:12:36.531Z,36.42
2019-04-16T19:15:07.715Z,36.24
2019-04-16T19:17:37.779Z,36.94
2019-04-16T19:20:06.576Z,37.23
2019-04-16T19:22:35.284Z,38.23
2019-04-16T19:25:08.331Z,37.63
2019-04-16T19:27:35.284Z,37.29
2019-04-16T19:30:05.792Z,36.96
2019-04-16T19:32:36.056Z,37.08
2019-04-16T19:35:09.944Z,36.37
2019-04-16T19:37:35.399Z,36.59
2019-04-16T19:40:04.531Z,36.40
2019-04-16T19:42:33.238Z,36.02
2019-04-16T19:45:01.946Z,36.95
2019-04-16T19:47:30.684Z,36.27
2019-04-16T19:49:59.379Z,35.73
2019-04-16T19:52:29.533Z,36.40
2019-04-16T19:54:58.262Z,36.11
2019-04-16T19:57:27.044Z,37.85
2019-04-16T19:59:55.747Z,37.49
2019-04-16T20:02:25.351Z,37.82
2019-04-16T20:04:54.191Z,36.90
2019-04-16T20:07:22.852Z,36.16
2019-04-16T20:09:51.617Z,35.35
2019-04-16T20:12:20.304Z,35.09
2019-04-16T20:14:49.013Z,35.68
2019-04-16T20:17:17.749Z,35.23
2019-04-16T20:19:58.496Z,36.27
2019-04-16T20:22:31.174Z,35.85
2019-04-16T20:24:59.878Z,36.56
2019-04-16T20:27:28.623Z,36.24
2019-04-16T20:29:57.479Z,35.62
2019-04-16T20:32:27.514Z,34.83
2019-04-16T20:34:56.139Z,36.39
2019-04-16T20:37:24.820Z,35.22
2019-04-16T20:39:53.643Z,34.66
2019-04-16T20:42:22.267Z,34.21
2019-04-16T20:44:50.922Z,34.44
2019-04-16T20:47:19.474Z,34.97
2019-04-16T20:49:49.175Z,34.16
2019-04-16T20:52:18.526Z,34.30
2019-04-16T20:54:48.798Z,34.33
2019-04-16T20:57:17.432Z,35.26
2019-04-16T20:59:46.094Z,34.04
2019-04-16T21:02:14.794Z,34.97
2019-04-16T21:04:44.219Z,34.00
2019-04-16T21:07:15.369Z,33.14
2019-04-16T21:09:43.309Z,33.72
2019-04-16T21:12:13.189Z,34.01
2019-04-16T21:14:42.257Z,34.70
2019-04-16T21:17:10.888Z,34.20
2019-04-16T21:19:46.772Z,33.35
2019-04-16T21:22:17.371Z,33.18
2019-04-16T21:24:46.850Z,33.80
2019-04-16T21:27:15.571Z,33.84
2019-04-16T21:29:44.249Z,33.73
2019-04-16T21:32:23.617Z,33.59
2019-04-16T21:34:59.851Z,34.79
2019-04-16T21:37:32.006Z,34.69
2019-04-16T21:40:02.342Z,35.00
2019-04-16T21:42:34.414Z,34.14
2019-04-16T21:45:01.320Z,33.89
2019-04-16T21:47:29.978Z,33.71
2019-04-16T21:49:58.595Z,33.25
2019-04-16T21:52:27.227Z,32.94
2019-04-16T21:54:55.890Z,34.33
2019-04-16T21:57:24.510Z,33.37
2019-04-16T21:59:56.977Z,33.55
2019-04-16T22:02:25.283Z,33.97
2019-04-16T22:04:54.747Z,33.62
2019-04-16T22:07:24.587Z,33.20
2019-04-16T22:09:53.760Z,32.87
2019-04-16T22:12:22.393Z,35.18
2019-04-16T22:14:54.365Z,36.34
2019-04-16T22:17:21.383Z,35.38
2019-04-16T22:19:54.444Z,36.23
2019-04-16T22:22:20.355Z,36.30
2019-04-16T22:24:51.743Z,37.30
2019-04-16T22:27:19.350Z,37.43
2019-04-16T22:29:48.307Z,36.36
2019-04-16T22:32:19.023Z,37.01
2019-04-16T22:34:47.643Z,36.48
2019-04-16T22:37:16.275Z,37.00
2019-04-16T22:39:50.814Z,37.11
2019-04-16T22:42:18.549Z,36.51
2019-04-16T22:44:57.306Z,35.83
2019-04-16T22:47:30.477Z,36.47
2019-04-16T22:50:14.344Z,36.09
2019-04-16T22:52:30.427Z,37.28
2019-04-16T22:54:59.040Z,37.32
2019-04-16T22:57:30.871Z,37.20
2019-04-16T22:59:58.351Z,36.77
2019-04-16T23:02:28.581Z,36.88
2019-04-16T23:04:58.528Z,36.22
2019-04-16T23:07:27.587Z,37.00
2019-04-16T23:09:56.206Z,37.14
2019-04-16T23:12:28.037Z,36.51
2019-04-16T23:14:55.222Z,37.06
2019-04-16T23:17:25.474Z,37.46
2019-04-16T23:19:54.596Z,37.34
2019-04-16T23:22:24.135Z,38.03
2019-04-16T23:24:55.123Z,36.39
2019-04-16T23:27:23.092Z,37.38
2019-04-16T23:29:51.747Z,36.79
2019-04-16T23:32:20.433Z,35.93
2019-04-16T23:34:49.056Z,36.21
2019-04-16T23:37:22.999Z,36.24
2019-04-16T23:39:47.975Z,36.02
2019-04-16T23:42:19.052Z,35.61
2019-04-16T23:44:48.608Z,35.23
2019-04-16T23:47:34.831Z,36.10
2019-04-16T23:50:08.149Z,35.77
2019-04-16T23:52:38.426Z,36.40
2019-04-16T23:55:17.457Z,36.99
2019-04-16T23:58:04.667Z,36.94
